Ana Sayfa
METAR-TAF:

METAR-TAF

Havaalanları :

Bacău, Romanya

Enlem: 46-35N, Boylam: 026-58E, yükseklik: 184 m

Güncel hava durumu gözlemi

Rapor saat 06:30 UTC de 38 dakika önce yapıldı.
Rüzgar kuzey/kuzeydoğudan 2 kt, kuzey/kuzeybatı ve kuzeydoğu arasında değişken
Sıcaklık -1°C
Nem 100%
Basınç 1012 hPa
Görüş mesafesi: 3000 m
Pus

METAR: LRBC 280630Z 03002KT 340V040 3000 BR NSC M01/M01 Q1012

Saat: 09:08 (07:08 UTC)

Tahmin

Rapor saat 05:00 UTC de 2 saat ve 8 dakika önce yapıldı.
Ayın 28'si saat 06 UTC'den ayın 28'si saat 15 UTC'ye kadar geçerli Tahmin
Rüzgar değişken yönden 3 kt
Görüş mesafesi: 3000 m
Pus
Geçici
ayın 28'si saat 06 UTC'den ayın 28'si saat 07 UTC'ye kadar
Görüş mesafesi: 1500 m
Pus
Dönüşüyor
ayın 28'si saat 07 UTC'den ayın 28'si saat 09 UTC'ye kadar
Görüş mesafesi 10 km veya daha fazla
1500 m altında bulut yok ve kümülonimbus yok

TAF: LRBC 280500Z 2806/2815 VRB03KT 3000 BR NSC TEMPO 2806/2807 1500 BR BECMG 2807/2809 CAVOK

4.000'den fazla havaalanı için hava durumu gözlemleri ve tahminleri (METAR ve TAF raporları).

Kullanılabilir istasyonlar harita üzerinde sarı ve kırmızı noktalarla gösterilir.

İstasyonun adını görmek için fareyi noktanın üzerinde gezdirin.

Sonrasında hava gözlem ve tahminlerini görmek için tıklayın.

Haritayı değiştirmek için: yaklaştırmak için siyah artı işaretli yeşil düğmeye ve uzaklaştırmak için de eksi işaretli düğmeye hızla tıklayın; bitişik haritalar için yeşil okları kullanın.


METAR-TAF: